Time;durP1;ratioP1;P1;durP2;ratioP2;P2;SDS_P1;SDS_P2;PMS_P1;PMS_P2;Temp;Humidity;BMP_temperature;BMP_pressure;BME280_temperature;BME280_humidity;BME280_pressure;Samples;Min_cycle;Max_cycle;Signal;HPM_P1;HPM_P2
2023/06/21 00:01:15;;;;;;;8.30;7.53;;;25.90;74.50;;;;;;3961074;29;20431;-59
2023/06/21 00:03:59;;;;;;;11.50;8.23;;;25.90;74.60;;;;;;3972091;29;20143;-59
2023/06/21 00:06:53;;;;;;;9.38;8.50;;;25.90;74.50;;;;;;3971866;29;20066;-59
2023/06/21 00:09:35;;;;;;;9.70;8.57;;;25.90;74.60;;;;;;3971712;29;20502;-59
2023/06/21 00:12:18;;;;;;;10.50;9.40;;;25.80;74.60;;;;;;3972060;29;20066;-59
2023/06/21 00:15:12;;;;;;;9.48;8.68;;;25.80;74.70;;;;;;3970958;29;20077;-59
2023/06/21 00:17:56;;;;;;;10.10;9.30;;;25.80;74.70;;;;;;3945758;30;20090;-59
2023/06/21 00:20:38;;;;;;;11.18;10.15;;;25.80;74.90;;;;;;3957053;30;20062;-59
2023/06/21 00:23:27;;;;;;;12.23;11.02;;;25.80;75.00;;;;;;3956601;29;20098;-58
2023/06/21 00:26:12;;;;;;;11.90;10.73;;;25.80;75.10;;;;;;3957026;29;20096;-60
2023/06/21 00:29:13;;;;;;;12.10;10.90;;;25.80;75.10;;;;;;3957284;29;20061;-60
2023/06/21 00:31:57;;;;;;;12.93;11.35;;;25.80;75.20;;;;;;3955638;29;20050;-61
2023/06/21 00:34:41;;;;;;;13.05;11.85;;;25.70;75.10;;;;;;3945687;29;20395;-61
2023/06/21 00:40:27;;;;;;;13.25;12.05;;;25.70;75.20;;;;;;3955831;29;20138;-61
2023/06/21 00:46:16;;;;;;;13.18;11.88;;;25.70;75.30;;;;;;3949388;29;20144;-61
2023/06/21 00:48:58;;;;;;;14.05;12.75;;;25.70;75.30;;;;;;3955979;29;20066;-60
2023/06/21 00:51:57;;;;;;;13.30;12.10;;;25.60;75.30;;;;;;3956299;29;20180;-61
2023/06/21 00:54:59;;;;;;;13.65;12.45;;;25.70;75.50;;;;;;3945551;30;20057;-60
2023/06/21 00:58:03;;;;;;;13.93;12.52;;;25.70;75.60;;;;;;3956788;30;20376;-60
2023/06/21 01:01:12;;;;;;;13.73;12.38;;;25.70;75.60;;;;;;3955733;30;20058;-61
2023/06/21 01:03:54;;;;;;;14.77;13.38;;;25.60;75.50;;;;;;3930983;30;20058;-60
2023/06/21 01:06:52;;;;;;;14.70;13.20;;;25.60;76.40;;;;;;3942016;30;20062;-61
2023/06/21 01:09:48;;;;;;;14.40;13.07;;;25.60;75.80;;;;;;3945906;29;20416;-60
2023/06/21 01:12:40;;;;;;;15.30;13.90;;;25.60;75.80;;;;;;3950506;30;20061;-60
2023/06/21 01:15:24;;;;;;;;;;;25.60;75.80;;;;;;3956814;30;20153;-61
2023/06/21 01:18:17;;;;;;;14.90;13.55;;;25.60;75.30;;;;;;3956422;30;19936;-61
2023/06/21 01:21:23;;;;;;;15.23;13.80;;;25.60;75.30;;;;;;3931280;29;20062;-61
2023/06/21 01:24:20;;;;;;;15.07;13.77;;;25.60;75.60;;;;;;3944382;29;20070;-60
2023/06/21 01:27:18;;;;;;;16.60;14.43;;;25.60;75.80;;;;;;3941442;30;20087;-61
2023/06/21 01:30:02;;;;;;;14.32;13.13;;;25.60;75.90;;;;;;3940505;30;20062;-61
2023/06/21 01:32:53;;;;;;;15.90;14.35;;;25.60;76.70;;;;;;3953229;30;20058;-61
2023/06/21 01:35:36;;;;;;;14.48;13.13;;;25.60;75.80;;;;;;3955727;29;20431;-60
2023/06/21 01:38:49;;;;;;;15.10;13.65;;;25.60;75.90;;;;;;3953907;30;20064;-60
2023/06/21 01:41:34;;;;;;;17.45;14.18;;;25.60;75.90;;;;;;3955405;29;20078;-60
2023/06/21 01:47:39;;;;;;;21.00;13.90;;;25.50;76.00;;;;;;3954896;29;20066;-60
2023/06/21 01:51:14;;;;;;;15.15;13.80;;;25.50;76.20;;;;;;3955424;29;20180;-60
2023/06/21 01:54:02;;;;;;;14.57;13.07;;;25.50;76.20;;;;;;3941975;30;20135;-60
2023/06/21 01:57:04;;;;;;;15.13;13.65;;;25.50;75.90;;;;;;3945706;30;20211;-60
2023/06/21 01:59:54;;;;;;;13.15;11.85;;;25.50;76.10;;;;;;3944640;29;20061;-59
2023/06/21 02:03:09;;;;;;;17.13;13.07;;;25.50;76.10;;;;;;3958135;30;20113;-59
2023/06/21 02:05:56;;;;;;;15.35;13.82;;;25.50;76.10;;;;;;3956827;29;20155;-59
2023/06/21 02:08:46;;;;;;;15.52;13.95;;;25.50;76.10;;;;;;3951204;29;20083;-59
2023/06/21 02:11:29;;;;;;;15.27;13.82;;;25.50;76.10;;;;;;3944433;30;20053;-59
2023/06/21 02:14:13;;;;;;;14.75;13.25;;;25.50;76.20;;;;;;3943846;30;20059;-60
2023/06/21 02:16:55;;;;;;;15.27;13.88;;;25.50;76.20;;;;;;3965565;29;20510;-58
2023/06/21 02:19:44;;;;;;;17.45;15.13;;;25.50;76.30;;;;;;3973961;29;20509;-58
2023/06/21 02:22:39;;;;;;;15.77;14.18;;;25.50;76.40;;;;;;3962487;29;20184;-58
2023/06/21 02:25:23;;;;;;;15.32;13.73;;;25.40;76.20;;;;;;3973587;29;20157;-58
2023/06/21 02:28:24;;;;;;;15.52;14.05;;;25.40;76.30;;;;;;3948373;29;20054;-57
2023/06/21 02:31:06;;;;;;;17.52;15.68;;;25.40;76.30;;;;;;3973758;29;20822;-58
2023/06/21 02:33:48;;;;;;;17.33;15.38;;;25.40;76.30;;;;;;3972886;29;20065;-58
2023/06/21 02:36:32;;;;;;;16.30;14.73;;;25.40;76.40;;;;;;3973654;29;20066;-58
2023/06/21 02:39:25;;;;;;;17.88;15.60;;;25.40;76.50;;;;;;3972912;29;20810;-58
2023/06/21 02:42:16;;;;;;;17.38;15.68;;;25.40;76.50;;;;;;3972497;29;20578;-57
2023/06/21 02:45:03;;;;;;;19.95;18.15;;;25.40;76.70;;;;;;3973492;29;20148;-58
2023/06/21 02:47:47;;;;;;;21.85;18.77;;;25.30;77.40;;;;;;3973295;29;20072;-58
2023/06/21 02:53:26;;;;;;;21.02;18.75;;;25.30;76.60;;;;;;3952886;29;20062;-59
2023/06/21 02:56:19;;;;;;;21.92;19.83;;;25.30;76.60;;;;;;3961965;29;20509;-58
2023/06/21 02:59:00;;;;;;;20.77;18.77;;;25.30;76.60;;;;;;3962196;29;20050;-57
2023/06/21 03:01:46;;;;;;;21.73;19.63;;;25.30;76.70;;;;;;3957597;29;20128;-56
2023/06/21 03:04:32;;;;;;;20.55;18.58;;;25.30;76.70;;;;;;3947290;29;20144;-57
2023/06/21 03:10:24;;;;;;;22.05;19.85;;;25.30;76.60;;;;;;3965637;29;20433;-57
2023/06/21 03:13:21;;;;;;;23.05;20.75;;;25.20;76.70;;;;;;3971103;29;20076;-56
2023/06/21 03:16:04;;;;;;;23.58;21.10;;;25.20;76.60;;;;;;3971862;29;20872;-56
2023/06/21 03:18:56;;;;;;;24.73;21.75;;;25.20;76.50;;;;;;3972938;29;20126;-57
2023/06/21 03:21:40;;;;;;;23.48;21.08;;;25.20;76.50;;;;;;3971430;29;20155;-57
2023/06/21 03:24:32;;;;;;;24.85;22.30;;;25.20;76.50;;;;;;3972933;29;20061;-57
2023/06/21 03:27:53;;;;;;;25.33;22.83;;;25.20;76.40;;;;;;3972053;29;20066;-57
2023/06/21 03:30:45;;;;;;;24.60;22.30;;;25.20;76.50;;;;;;3962144;29;20062;-57
2023/06/21 03:33:31;;;;;;;25.30;22.88;;;25.10;76.30;;;;;;3971286;29;20414;-57
2023/06/21 03:36:19;;;;;;;25.52;23.13;;;25.10;76.40;;;;;;3971146;29;20499;-57
2023/06/21 03:39:04;;;;;;;26.25;22.38;;;25.10;76.50;;;;;;3972406;29;20215;-57
2023/06/21 03:41:50;;;;;;;25.63;23.17;;;25.10;76.60;;;;;;3946690;29;20111;-57
2023/06/21 03:44:40;;;;;;;27.88;25.10;;;25.10;76.50;;;;;;3966409;29;20061;-57
2023/06/21 03:47:25;;;;;;;25.00;22.50;;;25.10;76.50;;;;;;3960764;29;20061;-57
2023/06/21 03:50:11;;;;;;;25.80;23.27;;;25.00;76.50;;;;;;3971727;29;20443;-53
2023/06/21 03:52:55;;;;;;;26.88;24.13;;;25.10;76.60;;;;;;3961253;29;20057;-60
2023/06/21 03:55:55;;;;;;;25.73;22.98;;;25.00;77.40;;;;;;3971925;29;20057;-58
2023/06/21 03:58:36;;;;;;;25.38;22.55;;;25.10;76.90;;;;;;3966907;29;20058;-57
2023/06/21 04:01:18;;;;;;;26.02;23.48;;;25.10;77.00;;;;;;3966796;29;20066;-58
2023/06/21 04:04:01;;;;;;;28.13;24.98;;;25.10;76.80;;;;;;3957151;29;20494;-58
2023/06/21 04:06:45;;;;;;;29.15;26.15;;;25.10;76.70;;;;;;3966854;29;20080;-59
2023/06/21 04:09:39;;;;;;;29.13;26.17;;;25.10;76.70;;;;;;3958396;29;20506;-58
2023/06/21 04:12:42;;;;;;;29.73;26.65;;;25.10;76.70;;;;;;3972277;29;20061;-58
2023/06/21 04:15:40;;;;;;;29.65;26.45;;;25.10;76.70;;;;;;3950899;29;20070;-58
2023/06/21 04:18:25;;;;;;;29.08;25.90;;;25.00;76.60;;;;;;3955735;29;20058;-58
2023/06/21 04:21:23;;;;;;;29.08;26.02;;;25.00;76.60;;;;;;3942066;30;20078;-58
2023/06/21 04:24:16;;;;;;;27.77;23.38;;;25.00;76.80;;;;;;3956700;29;20107;-58
2023/06/21 04:27:22;;;;;;;30.52;26.42;;;25.00;76.80;;;;;;3941496;30;20132;-62
2023/06/21 04:30:11;;;;;;;30.65;27.33;;;25.00;76.80;;;;;;3942807;30;20074;-57
2023/06/21 04:32:56;;;;;;;30.10;26.70;;;25.00;76.90;;;;;;3949673;30;20112;-58
2023/06/21 04:35:40;;;;;;;31.73;26.73;;;25.00;76.90;;;;;;3956153;30;20173;-58
2023/06/21 04:38:24;;;;;;;31.13;27.40;;;25.00;76.90;;;;;;3956790;30;20062;-58
2023/06/21 04:41:06;;;;;;;28.58;25.50;;;25.00;76.90;;;;;;3956556;29;20519;-57
2023/06/21 04:43:50;;;;;;;31.05;27.90;;;25.00;77.00;;;;;;3966028;29;20077;-57
2023/06/21 04:46:37;;;;;;;31.88;28.17;;;24.90;77.00;;;;;;3953449;30;20070;-57
2023/06/21 04:49:25;;;;;;;30.92;27.63;;;24.90;77.00;;;;;;3944607;30;20383;-58
2023/06/21 04:52:12;;;;;;;31.25;27.88;;;24.90;77.20;;;;;;3956736;30;20087;-58
2023/06/21 04:54:59;;;;;;;32.83;27.20;;;24.90;77.30;;;;;;3956230;30;20058;-58
2023/06/21 04:57:49;;;;;;;31.63;28.23;;;24.90;77.30;;;;;;3956081;30;20473;-57
2023/06/21 05:00:34;;;;;;;29.17;26.20;;;24.80;77.40;;;;;;3955191;30;20521;-58
2023/06/21 05:03:26;;;;;;;29.92;26.23;;;24.80;77.40;;;;;;3945588;30;20058;-57
2023/06/21 05:06:07;;;;;;;32.03;26.92;;;24.80;77.40;;;;;;3956031;30;20193;-58
2023/06/21 05:08:48;;;;;;;30.27;25.45;;;24.70;77.50;;;;;;3956261;30;20062;-57
2023/06/21 05:11:34;;;;;;;29.80;26.02;;;24.80;77.50;;;;;;3955568;29;20066;-58
2023/06/21 05:14:17;;;;;;;29.00;25.73;;;24.70;77.50;;;;;;3947204;29;20058;-58
2023/06/21 05:17:05;;;;;;;27.58;24.60;;;24.80;77.50;;;;;;3955765;29;20188;-58
2023/06/21 05:19:46;;;;;;;25.70;22.70;;;24.80;77.60;;;;;;3959984;29;20054;-59
2023/06/21 05:22:27;;;;;;;25.02;21.45;;;24.80;77.50;;;;;;3960287;29;20407;-58
2023/06/21 05:25:11;;;;;;;25.58;21.95;;;24.80;77.50;;;;;;3958274;29;20054;-58
2023/06/21 05:27:53;;;;;;;;;;;24.80;77.40;;;;;;3971431;29;20208;-58
2023/06/21 05:30:36;;;;;;;24.02;21.00;;;24.80;77.20;;;;;;3970542;29;20371;-58
2023/06/21 05:33:29;;;;;;;24.77;21.02;;;24.80;77.20;;;;;;3970958;29;20134;-59
2023/06/21 05:36:14;;;;;;;23.05;19.08;;;24.80;77.20;;;;;;3970044;29;20058;-59
2023/06/21 05:38:59;;;;;;;21.98;19.40;;;24.80;77.10;;;;;;3970992;29;20391;-59
2023/06/21 05:41:43;;;;;;;21.25;18.38;;;24.80;76.60;;;;;;3971225;29;20061;-59
2023/06/21 05:44:34;;;;;;;21.90;18.45;;;24.90;76.50;;;;;;3958846;29;20058;-59
2023/06/21 05:47:17;;;;;;;21.42;19.05;;;24.90;76.30;;;;;;3944895;29;20058;-59
2023/06/21 05:50:02;;;;;;;21.55;18.98;;;24.90;76.00;;;;;;3956011;29;20547;-59
2023/06/21 05:52:45;;;;;;;22.38;17.38;;;24.90;75.80;;;;;;3944936;29;20519;-59
2023/06/21 05:55:28;;;;;;;20.20;17.63;;;24.90;75.70;;;;;;3959939;29;20079;-59
2023/06/21 05:58:14;;;;;;;18.42;15.52;;;24.90;75.60;;;;;;3970573;29;20069;-59
2023/06/21 06:01:00;;;;;;;18.20;16.38;;;24.90;75.60;;;;;;3970694;29;20216;-59
2023/06/21 06:04:04;;;;;;;19.77;16.40;;;24.90;75.40;;;;;;3962730;29;20062;-59
2023/06/21 06:06:50;;;;;;;19.50;15.45;;;24.90;75.20;;;;;;3959785;29;20208;-59
2023/06/21 06:09:34;;;;;;;20.05;16.42;;;24.90;75.30;;;;;;3971015;29;20066;-59
2023/06/21 06:12:25;;;;;;;19.60;16.17;;;24.90;75.30;;;;;;3969767;29;20387;-59
2023/06/21 06:15:07;;;;;;;17.75;15.35;;;24.90;75.20;;;;;;3977649;29;20066;-59
2023/06/21 06:17:54;;;;;;;17.63;14.93;;;24.90;75.10;;;;;;3969274;29;20227;-58
2023/06/21 06:20:58;;;;;;;15.27;13.68;;;24.90;75.00;;;;;;3959179;29;20057;-61
2023/06/21 06:23:49;;;;;;;15.90;13.90;;;25.00;74.80;;;;;;3971065;29;20083;-59
2023/06/21 06:26:30;;;;;;;16.05;12.43;;;25.00;74.50;;;;;;3970339;29;20072;-59
2023/06/21 06:29:11;;;;;;;15.80;12.07;;;25.00;74.20;;;;;;3970460;29;20101;-58
2023/06/21 06:31:53;;;;;;;16.48;12.75;;;25.10;73.80;;;;;;3970413;29;20143;-58
2023/06/21 06:34:37;;;;;;;13.77;12.27;;;25.10;73.40;;;;;;3959335;29;20065;-57
2023/06/21 06:37:18;;;;;;;15.25;11.95;;;25.20;73.10;;;;;;3955665;29;20063;-57
2023/06/21 06:40:05;;;;;;;15.40;12.18;;;25.20;72.80;;;;;;3956174;29;20050;-57
2023/06/21 06:42:51;;;;;;;13.65;12.25;;;25.30;72.80;;;;;;3956220;29;20066;-58
2023/06/21 06:45:35;;;;;;;13.80;11.23;;;25.30;72.60;;;;;;3958694;29;20191;-57
2023/06/21 06:48:22;;;;;;;14.68;11.32;;;25.30;72.40;;;;;;3972202;29;20619;-59
2023/06/21 06:51:21;;;;;;;13.95;11.60;;;25.40;72.10;;;;;;3972034;29;20062;-58
2023/06/21 06:54:14;;;;;;;13.40;11.60;;;25.50;71.90;;;;;;3963513;29;20054;-58
2023/06/21 06:56:59;;;;;;;13.02;11.15;;;25.50;71.50;;;;;;3971704;29;20064;-63
2023/06/21 06:59:58;;;;;;;14.98;10.93;;;25.60;71.20;;;;;;3957816;29;20161;-58
2023/06/21 07:02:43;;;;;;;11.63;9.80;;;25.60;70.80;;;;;;3957627;29;20058;-59
2023/06/21 07:05:27;;;;;;;12.27;10.77;;;25.60;70.50;;;;;;3963102;29;20141;-58
2023/06/21 07:08:23;;;;;;;12.25;10.43;;;25.70;70.30;;;;;;3968973;29;20559;-57
2023/06/21 07:11:07;;;;;;;14.45;10.73;;;25.70;70.00;;;;;;3957957;29;20073;-58
2023/06/21 07:13:55;;;;;;;12.15;10.65;;;25.80;70.00;;;;;;3960905;29;20083;-57
2023/06/21 07:16:40;;;;;;;11.98;10.18;;;25.80;70.70;;;;;;3971545;29;20061;-58
2023/06/21 07:19:47;;;;;;;;;;;25.80;69.70;;;;;;3942977;30;20221;-57
2023/06/21 07:22:44;;;;;;;11.57;9.32;;;25.90;69.80;;;;;;3942371;30;19933;-64
2023/06/21 07:25:28;;;;;;;10.10;9.10;;;25.90;69.60;;;;;;3942212;30;20104;-58
2023/06/21 07:28:13;;;;;;;12.00;9.57;;;25.90;69.30;;;;;;3948882;29;20059;-58
2023/06/21 07:31:05;;;;;;;8.95;8.02;;;26.00;69.20;;;;;;3957193;30;20063;-58
2023/06/21 07:33:49;;;;;;;10.90;8.68;;;26.00;70.10;;;;;;3957056;29;20078;-58
2023/06/21 07:36:33;;;;;;;12.00;8.82;;;26.00;69.00;;;;;;3956643;29;20570;-59
2023/06/21 07:39:19;;;;;;;11.88;9.07;;;26.10;69.00;;;;;;3956959;29;20058;-58
2023/06/21 07:42:07;;;;;;;9.10;7.22;;;26.10;69.00;;;;;;3957302;29;20576;-58
2023/06/21 07:44:55;;;;;;;7.60;6.90;;;26.10;68.70;;;;;;3956882;29;20077;-58
2023/06/21 07:47:37;;;;;;;9.80;7.40;;;26.10;68.70;;;;;;3951205;29;20058;-59
2023/06/21 07:50:20;;;;;;;8.43;7.10;;;26.10;68.60;;;;;;3957303;29;20062;-59
2023/06/21 07:53:05;;;;;;;10.68;7.97;;;26.10;68.60;;;;;;3942356;30;20206;-58
2023/06/21 07:55:53;;;;;;;7.78;6.97;;;26.10;68.50;;;;;;3942646;30;20062;-58
2023/06/21 07:58:38;;;;;;;8.05;7.30;;;26.10;68.50;;;;;;3950460;29;20058;-58
2023/06/21 08:01:24;;;;;;;8.85;7.15;;;26.10;68.30;;;;;;3957303;30;20053;-59
2023/06/21 08:04:09;;;;;;;8.00;6.82;;;26.10;68.30;;;;;;3957328;30;20062;-58
2023/06/21 08:06:53;;;;;;;9.18;6.97;;;26.20;68.40;;;;;;3946631;30;20416;-57
2023/06/21 08:09:35;;;;;;;8.48;6.78;;;26.10;68.20;;;;;;3957146;30;20063;-58
2023/06/21 08:12:17;;;;;;;;;;;26.10;68.30;;;;;;3957733;30;20054;-59
2023/06/21 08:15:06;;;;;;;7.40;5.80;;;26.10;68.30;;;;;;3957329;29;19954;-58
2023/06/21 08:18:01;;;;;;;8.27;5.72;;;26.10;68.20;;;;;;3973502;29;20057;-57
2023/06/21 08:20:43;;;;;;;9.52;6.28;;;26.10;68.00;;;;;;3987275;29;20648;-58
2023/06/21 08:23:30;;;;;;;8.98;7.20;;;26.10;67.80;;;;;;3984351;29;20057;-58
2023/06/21 08:26:31;;;;;;;7.82;6.75;;;26.10;67.50;;;;;;3971484;29;20467;-59
2023/06/21 08:29:20;;;;;;;8.27;7.05;;;26.10;67.40;;;;;;3960145;29;20065;-59
2023/06/21 08:32:07;;;;;;;8.43;6.45;;;26.20;66.80;;;;;;3971497;29;20149;-58
2023/06/21 08:34:52;;;;;;;8.20;5.85;;;26.20;66.70;;;;;;3959603;29;20530;-58
2023/06/21 08:37:37;;;;;;;7.20;6.47;;;26.20;66.80;;;;;;3971161;29;20450;-59
2023/06/21 08:43:29;;;;;;;6.97;5.85;;;26.20;66.70;;;;;;3956554;29;20200;-59
2023/06/21 08:46:13;;;;;;;7.85;6.22;;;26.20;66.80;;;;;;3956579;29;20062;-58
2023/06/21 08:52:24;;;;;;;6.95;6.25;;;26.20;66.20;;;;;;3970361;29;20139;-58
2023/06/21 08:55:10;;;;;;;11.20;6.05;;;26.20;66.20;;;;;;3970758;29;20061;-59
2023/06/21 09:04:44;;;;;;;7.18;5.97;;;26.20;66.00;;;;;;3932139;29;20127;-58
2023/06/21 09:07:31;;;;;;;6.40;5.80;;;26.30;65.90;;;;;;3971235;29;20058;-59
2023/06/21 09:10:29;;;;;;;5.70;5.07;;;26.30;65.90;;;;;;3970451;29;20138;-59
2023/06/21 09:16:25;;;;;;;6.68;6.07;;;26.30;65.80;;;;;;3955925;29;20707;-60
2023/06/21 09:19:14;;;;;;;6.35;5.75;;;26.30;65.50;;;;;;3963865;29;20118;-59
2023/06/21 09:22:26;;;;;;;5.95;4.47;;;26.30;65.60;;;;;;3952614;29;20054;-58
2023/06/21 09:25:38;;;;;;;5.30;4.80;;;26.30;65.00;;;;;;3963574;29;20058;-59
2023/06/21 09:28:27;;;;;;;6.25;5.65;;;26.30;65.30;;;;;;3960136;29;20207;-59
2023/06/21 09:31:27;;;;;;;5.68;5.07;;;26.30;64.90;;;;;;3970872;29;20073;-58
2023/06/21 09:34:14;;;;;;;6.38;5.45;;;26.30;64.80;;;;;;3957310;29;20496;-59
2023/06/21 09:37:04;;;;;;;6.28;5.18;;;26.30;64.80;;;;;;3970387;29;20069;-58
2023/06/21 09:39:55;;;;;;;5.38;4.82;;;26.40;64.60;;;;;;3970165;29;20054;-58
2023/06/21 09:42:40;;;;;;;4.78;4.28;;;26.40;64.70;;;;;;3971210;29;20085;-61
2023/06/21 09:45:25;;;;;;;4.22;3.80;;;26.40;64.90;;;;;;3957679;29;20147;-54
2023/06/21 09:48:06;;;;;;;5.00;4.50;;;26.40;65.50;;;;;;3956361;29;20069;-57
2023/06/21 09:50:53;;;;;;;3.95;3.55;;;26.40;65.30;;;;;;3970030;29;20139;-58
2023/06/21 09:53:37;;;;;;;7.15;3.85;;;26.50;64.60;;;;;;3970934;29;20053;-58
2023/06/21 09:56:25;;;;;;;;;;;26.50;63.90;;;;;;3971227;29;20105;-58
2023/06/21 09:59:38;;;;;;;6.40;4.18;;;26.60;64.30;;;;;;3955735;29;19970;-57
2023/06/21 10:02:25;;;;;;;5.55;4.70;;;26.60;63.80;;;;;;3966172;29;20057;-58
2023/06/21 10:05:27;;;;;;;7.07;4.43;;;26.60;63.70;;;;;;3970980;29;20208;-58
2023/06/21 10:08:25;;;;;;;4.82;4.32;;;26.60;63.40;;;;;;3970144;29;20058;-58
2023/06/21 10:11:11;;;;;;;4.30;4.00;;;26.60;62.60;;;;;;3969352;29;20411;-60
2023/06/21 10:14:00;;;;;;;5.28;3.88;;;26.60;63.10;;;;;;3970134;29;20625;-60
2023/06/21 10:16:47;;;;;;;4.30;3.95;;;26.70;62.90;;;;;;3958887;29;20083;-60
2023/06/21 10:19:35;;;;;;;4.22;3.80;;;26.70;62.80;;;;;;3952634;29;20058;-59
2023/06/21 10:22:21;;;;;;;4.00;3.20;;;26.70;62.80;;;;;;3957706;29;20116;-60
2023/06/21 10:25:09;;;;;;;4.25;3.88;;;26.70;62.30;;;;;;3959092;29;20191;-59
2023/06/21 10:28:01;;;;;;;3.55;3.30;;;26.70;62.10;;;;;;3958980;29;20403;-60
2023/06/21 10:31:03;;;;;;;4.07;3.78;;;26.80;61.80;;;;;;3959000;29;20486;-60
2023/06/21 10:33:49;;;;;;;4.20;3.67;;;26.80;61.80;;;;;;3958723;29;20093;-59
2023/06/21 10:36:37;;;;;;;4.03;2.85;;;26.80;62.00;;;;;;3958568;29;20532;-60
2023/06/21 10:39:25;;;;;;;4.28;3.58;;;26.80;61.90;;;;;;3958662;29;20058;-61
2023/06/21 10:42:11;;;;;;;4.43;3.10;;;26.80;61.80;;;;;;3958697;29;20543;-59
2023/06/21 10:45:06;;;;;;;3.55;3.25;;;26.80;61.50;;;;;;3958575;29;20195;-59
2023/06/21 10:48:01;;;;;;;2.90;2.67;;;26.80;62.50;;;;;;3958358;29;20061;-59
2023/06/21 10:50:45;;;;;;;2.72;2.53;;;26.90;62.20;;;;;;3958473;29;20071;-60
2023/06/21 10:53:31;;;;;;;2.90;2.70;;;26.90;61.90;;;;;;3943614;29;20078;-60
2023/06/21 10:56:28;;;;;;;3.05;2.67;;;26.80;61.20;;;;;;3954075;29;20117;-58
2023/06/21 10:59:10;;;;;;;2.60;2.15;;;26.90;61.20;;;;;;3944006;29;20483;-59
2023/06/21 11:01:53;;;;;;;3.28;3.00;;;26.90;61.00;;;;;;3950474;29;20093;-59
2023/06/21 11:11:43;;;;;;;7.47;2.97;;;26.90;60.30;;;;;;3957566;29;20510;-58
2023/06/21 11:14:42;;;;;;;5.43;2.92;;;26.90;60.50;;;;;;3954033;29;20132;-59
2023/06/21 11:17:27;;;;;;;3.88;3.03;;;26.90;60.60;;;;;;3958838;29;20462;-58
2023/06/21 11:20:34;;;;;;;2.95;2.40;;;26.90;60.00;;;;;;3972898;29;20094;-59
2023/06/21 11:23:18;;;;;;;3.40;2.55;;;26.90;59.80;;;;;;3972360;29;20069;-63
2023/06/21 11:26:34;;;;;;;3.13;2.67;;;26.90;60.60;;;;;;3972349;29;20417;-59
2023/06/21 11:29:21;;;;;;;3.10;2.80;;;26.90;59.90;;;;;;3972346;29;20207;-59
2023/06/21 11:32:12;;;;;;;2.58;2.40;;;26.90;60.60;;;;;;3971803;29;20126;-59
2023/06/21 11:35:05;;;;;;;2.67;2.47;;;26.90;60.70;;;;;;3977187;29;20454;-59
2023/06/21 11:37:49;;;;;;;3.20;2.90;;;26.90;60.60;;;;;;3953986;29;20058;-59
2023/06/21 11:41:01;;;;;;;3.40;2.70;;;26.90;60.30;;;;;;3957180;29;20062;-59
2023/06/21 11:43:56;;;;;;;3.47;2.22;;;27.00;59.80;;;;;;3957633;29;20066;-59
2023/06/21 11:46:49;;;;;;;2.93;2.53;;;27.00;59.90;;;;;;3966123;29;20061;-60
2023/06/21 11:49:38;;;;;;;2.40;2.20;;;27.00;60.10;;;;;;3971765;29;20054;-60
2023/06/21 11:52:49;;;;;;;2.55;2.35;;;27.00;59.80;;;;;;3963957;29;20058;-60
2023/06/21 11:55:45;;;;;;;5.03;2.53;;;27.00;58.60;;;;;;3971741;29;20057;-60
2023/06/21 12:01:34;;;;;;;2.70;2.33;;;27.10;59.10;;;;;;3966367;29;20062;-60
2023/06/21 12:04:35;;;;;;;2.30;2.10;;;27.10;59.00;;;;;;3971294;29;20530;-60
2023/06/21 12:07:29;;;;;;;2.67;2.47;;;27.10;58.90;;;;;;3971380;29;20459;-60
2023/06/21 12:10:16;;;;;;;2.78;2.38;;;27.10;59.00;;;;;;3957084;29;20403;-59
2023/06/21 12:13:05;;;;;;;3.05;1.92;;;27.10;59.00;;;;;;3957042;29;20123;-60
2023/06/21 12:15:56;;;;;;;2.38;2.22;;;27.20;59.10;;;;;;3966865;29;20186;-60
2023/06/21 12:18:54;;;;;;;4.47;2.20;;;27.20;59.00;;;;;;3971327;29;20173;-60
2023/06/21 12:24:35;;;;;;;3.47;2.83;;;27.20;58.80;;;;;;3980837;29;20464;-60
2023/06/21 12:27:25;;;;;;;2.50;2.17;;;27.20;58.80;;;;;;3971669;29;20083;-60
2023/06/21 12:30:11;;;;;;;2.83;2.53;;;27.20;58.80;;;;;;3970639;29;20058;-59
2023/06/21 12:32:56;;;;;;;3.25;2.72;;;27.30;58.80;;;;;;3971878;29;20260;-60
2023/06/21 12:35:38;;;;;;;2.53;2.28;;;27.30;58.80;;;;;;3971357;29;20062;-60
2023/06/21 12:38:22;;;;;;;3.25;2.53;;;27.30;58.90;;;;;;3964970;29;20130;-60
2023/06/21 12:41:03;;;;;;;2.67;2.00;;;27.30;58.80;;;;;;3956451;29;20058;-59
2023/06/21 12:46:56;;;;;;;2.47;2.28;;;27.30;59.50;;;;;;3974662;29;20057;-59
2023/06/21 12:49:51;;;;;;;2.38;2.25;;;27.30;58.90;;;;;;3953387;29;20061;-59
2023/06/21 12:52:37;;;;;;;2.15;2.05;;;27.30;58.90;;;;;;3967745;29;20045;-59
2023/06/21 12:55:22;;;;;;;2.53;2.33;;;27.30;59.00;;;;;;3970966;29;20418;-59
2023/06/21 12:58:04;;;;;;;3.03;2.00;;;27.30;58.20;;;;;;3968404;29;20542;-59
2023/06/21 13:00:55;;;;;;;2.30;2.13;;;27.30;57.60;;;;;;3971279;29;20573;-59
2023/06/21 13:03:37;;;;;;;3.08;2.38;;;27.30;57.50;;;;;;3971327;29;20065;-59
2023/06/21 13:06:19;;;;;;;2.08;1.90;;;27.40;57.30;;;;;;3960069;29;20583;-59
2023/06/21 13:08:59;;;;;;;2.97;1.90;;;27.30;57.40;;;;;;3980963;29;20061;-60
2023/06/21 13:11:45;;;;;;;3.22;1.95;;;27.40;57.30;;;;;;3971005;29;20049;-60
2023/06/21 13:14:43;;;;;;;3.80;2.20;;;27.40;57.40;;;;;;3970495;29;20077;-60
2023/06/21 13:17:44;;;;;;;2.20;2.10;;;27.40;57.60;;;;;;3935307;29;20116;-59
2023/06/21 13:20:51;;;;;;;2.20;2.10;;;27.50;57.20;;;;;;3969749;29;20114;-59
2023/06/21 13:23:37;;;;;;;2.00;1.90;;;27.50;57.00;;;;;;3955984;29;20062;-59
2023/06/21 13:26:30;;;;;;;2.67;2.00;;;27.50;56.70;;;;;;3974917;29;20069;-59
2023/06/21 13:29:25;;;;;;;4.40;1.67;;;27.50;56.30;;;;;;3962773;29;20518;-59
2023/06/21 13:32:06;;;;;;;2.65;1.60;;;27.50;55.70;;;;;;3970680;29;20063;-59
2023/06/21 13:34:51;;;;;;;1.85;1.75;;;27.50;56.10;;;;;;3971260;29;20094;-59
2023/06/21 13:37:33;;;;;;;1.70;1.60;;;27.60;55.70;;;;;;3970543;29;20220;-59
2023/06/21 13:40:17;;;;;;;2.05;1.70;;;27.60;55.20;;;;;;3970276;29;20062;-59
2023/06/21 13:43:02;;;;;;;2.03;1.90;;;27.60;54.20;;;;;;3970529;29;20053;-59
2023/06/21 13:45:49;;;;;;;3.13;2.00;;;27.60;54.50;;;;;;3971028;29;20057;-59
2023/06/21 13:48:30;;;;;;;2.05;1.88;;;27.60;54.80;;;;;;3970925;29;20131;-60
2023/06/21 13:51:12;;;;;;;2.08;1.63;;;27.60;55.00;;;;;;3971169;29;20536;-60
2023/06/21 13:53:55;;;;;;;2.67;1.85;;;27.60;54.90;;;;;;3969879;29;20207;-59
2023/06/21 13:56:40;;;;;;;2.35;1.60;;;27.60;54.70;;;;;;3970996;29;20411;-59
2023/06/21 13:59:35;;;;;;;1.95;1.85;;;27.60;53.80;;;;;;3988693;29;20065;-60
2023/06/21 14:05:26;;;;;;;1.58;1.48;;;27.60;53.60;;;;;;3972820;29;20523;-60
2023/06/21 14:08:26;;;;;;;2.97;1.73;;;27.70;54.20;;;;;;3973194;29;20061;-59
2023/06/21 14:11:11;;;;;;;1.63;1.52;;;27.70;53.30;;;;;;3973396;29;20391;-59
2023/06/21 14:14:16;;;;;;;1.85;1.60;;;27.70;53.30;;;;;;3972703;29;20238;-59
2023/06/21 14:16:57;;;;;;;3.15;1.92;;;27.70;53.30;;;;;;3973314;29;20135;-59
2023/06/21 14:19:49;;;;;;;1.92;1.83;;;27.70;53.10;;;;;;3973657;29;20414;-59
2023/06/21 14:25:46;;;;;;;1.80;1.70;;;27.70;52.30;;;;;;3972898;29;20220;-59
2023/06/21 14:28:27;;;;;;;1.88;1.75;;;27.70;52.70;;;;;;3972718;29;20402;-58
2023/06/21 14:31:11;;;;;;;1.60;1.50;;;27.70;52.80;;;;;;3971190;29;20058;-59
2023/06/21 14:34:01;;;;;;;2.97;1.73;;;27.80;52.40;;;;;;3960443;29;20489;-60
2023/06/21 14:36:49;;;;;;;1.70;1.60;;;27.80;51.60;;;;;;3972677;29;20139;-60
2023/06/21 14:39:33;;;;;;;1.77;1.67;;;27.80;51.40;;;;;;3972124;29;20061;-60
2023/06/21 14:42:25;;;;;;;1.60;1.42;;;27.80;51.80;;;;;;3971852;29;20097;-59
2023/06/21 14:45:10;;;;;;;4.93;2.10;;;27.80;51.20;;;;;;3968933;29;20053;-60
2023/06/21 14:47:58;;;;;;;2.10;1.90;;;27.80;51.20;;;;;;3972555;29;20242;-60
2023/06/21 14:51:11;;;;;;;2.25;1.90;;;27.80;50.80;;;;;;3972239;29;20058;-60
2023/06/21 14:54:14;;;;;;;3.92;2.97;;;27.80;50.90;;;;;;3972318;29;20066;-62
2023/06/21 14:56:59;;;;;;;12.32;10.07;;;27.80;50.90;;;;;;3972751;29;20532;-61
2023/06/21 14:59:52;;;;;;;12.95;8.85;;;27.90;52.60;;;;;;3971207;29;20609;-61
2023/06/21 15:02:42;;;;;;;11.35;9.60;;;27.90;53.30;;;;;;3968897;29;20061;-60
2023/06/21 15:05:27;;;;;;;7.97;5.68;;;27.90;53.70;;;;;;3957650;29;20061;-60
2023/06/21 15:08:08;;;;;;;4.22;3.65;;;27.90;53.90;;;;;;3971948;29;20849;-60
2023/06/21 15:10:55;;;;;;;5.72;3.50;;;27.90;54.10;;;;;;3971978;29;20058;-60
2023/06/21 15:13:37;;;;;;;4.40;4.00;;;27.90;54.30;;;;;;3972423;29;20062;-59
2023/06/21 15:16:23;;;;;;;5.88;3.13;;;28.00;54.10;;;;;;3972382;29;20061;-59
2023/06/21 15:19:05;;;;;;;4.18;3.45;;;28.00;54.10;;;;;;3982160;29;20118;-59
2023/06/21 15:21:47;;;;;;;6.50;4.65;;;28.00;54.00;;;;;;3972324;29;20057;-60
2023/06/21 15:24:35;;;;;;;6.22;4.40;;;28.00;54.10;;;;;;3972608;29;20079;-59